Aérodrome :
LOGIN :

S'inscrire | Disclaimer

   EN    FR    IT 

 










Légende :    VFR   VFR Marginal   IFR   IFR Intensif   IFR Très Intensif
Visi : 
Plafond : 
>= 8 km
>= 3000ft
5 à 8 km
1000 à 3000 ft
1500m à 5 km
500 à 1000 ft
800 à 1500m
200 à 500 ft
< 800m
< 200 ft
Symboles :   Orages  Brouillard  Fortes neiges  Fortes précipitations  Vent > 20 kt
SIGMETs :   Divers  Orages  Givrage  Turbulence  Onde Orograph.  Cendres Volcan.







- Altitude de l'aérodrome : 44 ft
- Code IATA : SOU
- Voir les cartes d'approche


EGHI - Southampton

DERNIER METAR :
  • 241520Z 03014G24KT 360V060 9999 FEW022 11/05 Q1028

METARs EXPIRÉS :
  • 241450Z 04012KT 010V110 9999 FEW020 11/05 Q1028
  • 241420Z 04011G22KT 360V080 9999 SCT020 11/05 Q1028
  • 241350Z 02015G25KT 360V060 9999 SCT022 11/06 Q1028
  • 241320Z 04011G21KT 010V070 9000 BKN020 10/05 Q1028
  • 241250Z 04010KT 010V080 9000 FEW009 SCT020 10/06 Q1028

TAF AMD TAF EGHI
Valide du 24 à 13h jusqu'au 24 à 21h UTC


241356Z 2413/2421 03009KT 9999 SCT025
PROB30
TEMPO 2413/2418 04015G25KT 9000
ATIS : +44 23 8062 7103
Pas de NOTAMs connus pour ce terrain.
1 SIGMET publié pour la FIR London (EGTT) :
 
Turbulence forte
EGTT SIGMET 04 VALID 241500/241900 EGRR
EGTT LONDON FIR SEV TURB FCST S OF N5200 AND E OF W00400 FL180/320 MOV W 15KT NC=



MET'MAP, la Météo Aéronautique d'un coup d'oeil ! - Copyright ORBIFLY Décembre 2007 - Disclaimer

ORBIFLY MET'MAP TEAM :

Programmation & Développement : Alexandra Zaïnal
Conception & Développement : Baudouin d'Aumeries
Co-Programmation & Développement : Marc-Olivier Méhu
Soutien technique & logistique : Manuel Goepfert

Contact : metmap@orbifly.com




SOURCES & CREDITS :

   NOAA